sensor_id;sensor_type;location;lat;lon;timestamp;P1;durP1;ratioP1;P2;durP2;ratioP2
1957;SDS011;979;51.076;13.748;2022-11-10T01:15:42;23.50;;;22.00;;
1957;SDS011;979;51.076;13.748;2022-11-10T01:18:36;23.83;;;22.17;;
1957;SDS011;979;51.076;13.748;2022-11-10T01:21:35;24.37;;;22.77;;
1957;SDS011;979;51.076;13.748;2022-11-10T01:24:23;23.43;;;21.80;;
1957;SDS011;979;51.076;13.748;2022-11-10T01:27:15;21.70;;;20.43;;
1957;SDS011;979;51.076;13.748;2022-11-10T01:30:06;20.90;;;19.70;;
1957;SDS011;979;51.076;13.748;2022-11-10T01:32:59;20.47;;;19.33;;
1957;SDS011;979;51.076;13.748;2022-11-10T01:35:53;19.20;;;18.30;;
1957;SDS011;979;51.076;13.748;2022-11-10T01:38:41;20.80;;;19.40;;
1957;SDS011;979;51.076;13.748;2022-11-10T01:41:28;22.03;;;20.73;;
1957;SDS011;979;51.076;13.748;2022-11-10T01:44:21;21.97;;;20.40;;
1957;SDS011;979;51.076;13.748;2022-11-10T01:47:14;20.80;;;19.57;;
1957;SDS011;979;51.076;13.748;2022-11-10T01:50:32;20.90;;;19.80;;
1957;SDS011;979;51.076;13.748;2022-11-10T01:53:23;20.80;;;19.70;;
1957;SDS011;979;51.076;13.748;2022-11-10T01:56:28;20.87;;;19.43;;
1957;SDS011;979;51.076;13.748;2022-11-10T01:59:17;20.93;;;19.83;;
1957;SDS011;979;51.076;13.748;2022-11-10T02:02:19;21.30;;;20.00;;
1957;SDS011;979;51.076;13.748;2022-11-10T02:05:10;21.80;;;20.37;;
1957;SDS011;979;51.076;13.748;2022-11-10T02:07:59;20.80;;;19.60;;
1957;SDS011;979;51.076;13.748;2022-11-10T02:10:47;22.17;;;20.50;;
1957;SDS011;979;51.076;13.748;2022-11-10T02:13:37;21.40;;;20.20;;
1957;SDS011;979;51.076;13.748;2022-11-10T02:16:24;22.70;;;20.67;;
1957;SDS011;979;51.076;13.748;2022-11-10T02:19:22;21.10;;;20.00;;
1957;SDS011;979;51.076;13.748;2022-11-10T02:22:12;21.67;;;20.37;;
1957;SDS011;979;51.076;13.748;2022-11-10T02:24:59;21.73;;;20.03;;
1957;SDS011;979;51.076;13.748;2022-11-10T02:27:46;21.27;;;20.07;;
1957;SDS011;979;51.076;13.748;2022-11-10T02:30:34;19.60;;;18.60;;
1957;SDS011;979;51.076;13.748;2022-11-10T02:33:24;21.50;;;20.13;;
1957;SDS011;979;51.076;13.748;2022-11-10T02:36:11;20.33;;;19.20;;
1957;SDS011;979;51.076;13.748;2022-11-10T02:43:20;19.30;;;18.50;;
1957;SDS011;979;51.076;13.748;2022-11-10T02:46:09;18.47;;;17.67;;
1957;SDS011;979;51.076;13.748;2022-11-10T02:49:02;19.40;;;18.40;;
1957;SDS011;979;51.076;13.748;2022-11-10T02:51:51;19.80;;;18.30;;
1957;SDS011;979;51.076;13.748;2022-11-10T02:54:39;18.43;;;17.63;;
1957;SDS011;979;51.076;13.748;2022-11-10T02:57:26;18.07;;;17.20;;
1957;SDS011;979;51.076;13.748;2022-11-10T03:00:17;19.37;;;18.40;;
1957;SDS011;979;51.076;13.748;2022-11-10T03:03:09;18.70;;;17.90;;
1957;SDS011;979;51.076;13.748;2022-11-10T03:05:57;17.47;;;16.87;;
1957;SDS011;979;51.076;13.748;2022-11-10T03:08:45;17.30;;;16.80;;
1957;SDS011;979;51.076;13.748;2022-11-10T03:11:32;18.67;;;17.30;;
1957;SDS011;979;51.076;13.748;2022-11-10T03:14:22;17.33;;;16.60;;
1957;SDS011;979;51.076;13.748;2022-11-10T03:17:12;17.23;;;16.53;;
1957;SDS011;979;51.076;13.748;2022-11-10T03:20:01;17.37;;;16.63;;
1957;SDS011;979;51.076;13.748;2022-11-10T03:22:51;17.17;;;16.60;;
1957;SDS011;979;51.076;13.748;2022-11-10T03:25:41;18.60;;;17.67;;
1957;SDS011;979;51.076;13.748;2022-11-10T03:28:34;20.53;;;19.40;;
1957;SDS011;979;51.076;13.748;2022-11-10T03:31:23;17.90;;;17.23;;
1957;SDS011;979;51.076;13.748;2022-11-10T03:34:15;17.70;;;16.90;;
1957;SDS011;979;51.076;13.748;2022-11-10T03:37:02;18.90;;;17.80;;
1957;SDS011;979;51.076;13.748;2022-11-10T03:39:49;18.10;;;17.20;;
1957;SDS011;979;51.076;13.748;2022-11-10T03:42:42;17.70;;;16.90;;
1957;SDS011;979;51.076;13.748;2022-11-10T03:45:30;17.93;;;16.90;;
1957;SDS011;979;51.076;13.748;2022-11-10T03:48:22;17.43;;;16.83;;
1957;SDS011;979;51.076;13.748;2022-11-10T03:51:13;18.60;;;17.87;;
1957;SDS011;979;51.076;13.748;2022-11-10T03:54:01;18.27;;;17.33;;
1957;SDS011;979;51.076;13.748;2022-11-10T03:56:48;17.50;;;16.80;;
1957;SDS011;979;51.076;13.748;2022-11-10T03:59:35;18.40;;;17.50;;
1957;SDS011;979;51.076;13.748;2022-11-10T04:02:25;17.90;;;17.10;;
1957;SDS011;979;51.076;13.748;2022-11-10T04:05:12;17.03;;;16.43;;
1957;SDS011;979;51.076;13.748;2022-11-10T04:08:18;17.80;;;17.00;;
1957;SDS011;979;51.076;13.748;2022-11-10T04:11:32;17.77;;;17.07;;
1957;SDS011;979;51.076;13.748;2022-11-10T04:14:36;17.90;;;17.00;;
1957;SDS011;979;51.076;13.748;2022-11-10T04:17:41;18.90;;;17.77;;
1957;SDS011;979;51.076;13.748;2022-11-10T04:20:34;19.90;;;19.00;;
1957;SDS011;979;51.076;13.748;2022-11-10T04:23:26;16.60;;;15.90;;
1957;SDS011;979;51.076;13.748;2022-11-10T04:26:17;17.20;;;16.50;;
1957;SDS011;979;51.076;13.748;2022-11-10T04:29:18;18.13;;;17.20;;
1957;SDS011;979;51.076;13.748;2022-11-10T04:32:08;18.80;;;17.83;;
1957;SDS011;979;51.076;13.748;2022-11-10T04:34:54;17.00;;;16.10;;
1957;SDS011;979;51.076;13.748;2022-11-10T04:37:42;17.00;;;16.30;;
1957;SDS011;979;51.076;13.748;2022-11-10T04:40:38;17.97;;;16.97;;
1957;SDS011;979;51.076;13.748;2022-11-10T04:43:27;17.17;;;16.17;;
1957;SDS011;979;51.076;13.748;2022-11-10T04:46:19;16.70;;;16.10;;
1957;SDS011;979;51.076;13.748;2022-11-10T04:49:08;17.00;;;16.40;;
1957;SDS011;979;51.076;13.748;2022-11-10T04:52:05;17.37;;;16.27;;
1957;SDS011;979;51.076;13.748;2022-11-10T04:54:52;17.47;;;16.40;;
1957;SDS011;979;51.076;13.748;2022-11-10T04:57:41;16.70;;;16.10;;
1957;SDS011;979;51.076;13.748;2022-11-10T05:00:30;17.87;;;16.93;;
1957;SDS011;979;51.076;13.748;2022-11-10T05:03:19;18.10;;;16.87;;
1957;SDS011;979;51.076;13.748;2022-11-10T05:06:15;16.97;;;16.40;;
1957;SDS011;979;51.076;13.748;2022-11-10T05:09:02;17.53;;;16.50;;
1957;SDS011;979;51.076;13.748;2022-11-10T05:11:51;16.83;;;15.73;;
1957;SDS011;979;51.076;13.748;2022-11-10T05:14:39;17.90;;;17.20;;
1957;SDS011;979;51.076;13.748;2022-11-10T05:17:47;18.40;;;17.10;;
1957;SDS011;979;51.076;13.748;2022-11-10T05:20:35;17.40;;;16.80;;
1957;SDS011;979;51.076;13.748;2022-11-10T05:23:22;17.03;;;16.37;;
1957;SDS011;979;51.076;13.748;2022-11-10T05:26:24;18.00;;;17.10;;
1957;SDS011;979;51.076;13.748;2022-11-10T05:29:13;18.03;;;17.00;;
1957;SDS011;979;51.076;13.748;2022-11-10T05:32:02;17.63;;;16.73;;
1957;SDS011;979;51.076;13.748;2022-11-10T05:34:50;15.43;;;15.03;;
1957;SDS011;979;51.076;13.748;2022-11-10T05:37:38;17.23;;;16.20;;
1957;SDS011;979;51.076;13.748;2022-11-10T05:40:28;17.77;;;16.53;;
1957;SDS011;979;51.076;13.748;2022-11-10T05:43:18;17.13;;;16.43;;
1957;SDS011;979;51.076;13.748;2022-11-10T05:46:09;17.37;;;16.70;;
1957;SDS011;979;51.076;13.748;2022-11-10T05:49:10;16.70;;;16.10;;
1957;SDS011;979;51.076;13.748;2022-11-10T05:52:00;17.87;;;16.87;;
1957;SDS011;979;51.076;13.748;2022-11-10T05:58:11;17.33;;;16.73;;
1957;SDS011;979;51.076;13.748;2022-11-10T06:00:59;16.70;;;15.93;;
1957;SDS011;979;51.076;13.748;2022-11-10T06:03:54;17.27;;;16.67;;
1957;SDS011;979;51.076;13.748;2022-11-10T06:06:42;17.03;;;16.43;;
1957;SDS011;979;51.076;13.748;2022-11-10T06:09:30;18.30;;;17.57;;
1957;SDS011;979;51.076;13.748;2022-11-10T06:12:17;18.50;;;17.30;;
1957;SDS011;979;51.076;13.748;2022-11-10T06:15:04;17.53;;;16.83;;
1957;SDS011;979;51.076;13.748;2022-11-10T06:18:07;18.00;;;17.30;;
1957;SDS011;979;51.076;13.748;2022-11-10T06:21:02;17.43;;;16.63;;
1957;SDS011;979;51.076;13.748;2022-11-10T06:31:56;18.00;;;17.20;;
1957;SDS011;979;51.076;13.748;2022-11-10T06:35:04;17.80;;;17.10;;
1957;SDS011;979;51.076;13.748;2022-11-10T06:37:58;17.13;;;16.37;;
1957;SDS011;979;51.076;13.748;2022-11-10T06:40:47;17.70;;;17.00;;
1957;SDS011;979;51.076;13.748;2022-11-10T06:43:36;18.87;;;18.03;;
1957;SDS011;979;51.076;13.748;2022-11-10T06:46:23;19.87;;;18.87;;
1957;SDS011;979;51.076;13.748;2022-11-10T06:49:12;17.13;;;16.10;;
1957;SDS011;979;51.076;13.748;2022-11-10T06:52:01;18.23;;;17.43;;
1957;SDS011;979;51.076;13.748;2022-11-10T06:54:49;18.27;;;17.57;;
1957;SDS011;979;51.076;13.748;2022-11-10T06:57:36;18.60;;;17.60;;
1957;SDS011;979;51.076;13.748;2022-11-10T07:00:24;18.47;;;17.67;;
1957;SDS011;979;51.076;13.748;2022-11-10T07:03:13;18.87;;;18.27;;
1957;SDS011;979;51.076;13.748;2022-11-10T07:06:03;18.40;;;17.50;;
1957;SDS011;979;51.076;13.748;2022-11-10T07:08:55;17.67;;;17.07;;
1957;SDS011;979;51.076;13.748;2022-11-10T07:11:42;17.23;;;16.63;;
1957;SDS011;979;51.076;13.748;2022-11-10T07:14:31;18.37;;;17.50;;
1957;SDS011;979;51.076;13.748;2022-11-10T07:17:25;18.23;;;17.50;;
1957;SDS011;979;51.076;13.748;2022-11-10T07:20:52;18.03;;;17.33;;
1957;SDS011;979;51.076;13.748;2022-11-10T07:44:31;20.53;;;19.33;;
1957;SDS011;979;51.076;13.748;2022-11-10T07:47:24;19.63;;;18.53;;
1957;SDS011;979;51.076;13.748;2022-11-10T07:50:13;19.40;;;18.40;;
1957;SDS011;979;51.076;13.748;2022-11-10T07:53:19;18.80;;;17.90;;
1957;SDS011;979;51.076;13.748;2022-11-10T07:56:09;19.13;;;17.93;;
1957;SDS011;979;51.076;13.748;2022-11-10T07:59:11;18.60;;;17.60;;
1957;SDS011;979;51.076;13.748;2022-11-10T08:02:00;19.10;;;18.17;;
1957;SDS011;979;51.076;13.748;2022-11-10T08:04:47;18.10;;;17.40;;
1957;SDS011;979;51.076;13.748;2022-11-10T08:07:34;18.40;;;17.40;;
1957;SDS011;979;51.076;13.748;2022-11-10T08:10:22;18.17;;;17.47;;
1957;SDS011;979;51.076;13.748;2022-11-10T08:13:09;19.17;;;18.37;;
1957;SDS011;979;51.076;13.748;2022-11-10T08:15:57;19.43;;;18.53;;
1957;SDS011;979;51.076;13.748;2022-11-10T08:18:46;19.00;;;18.20;;
1957;SDS011;979;51.076;13.748;2022-11-10T08:21:33;19.50;;;18.70;;
1957;SDS011;979;51.076;13.748;2022-11-10T08:24:23;19.50;;;18.20;;
1957;SDS011;979;51.076;13.748;2022-11-10T08:27:10;19.33;;;18.43;;
1957;SDS011;979;51.076;13.748;2022-11-10T08:29:59;18.27;;;17.57;;
1957;SDS011;979;51.076;13.748;2022-11-10T08:32:46;19.27;;;18.37;;
1957;SDS011;979;51.076;13.748;2022-11-10T08:35:35;19.70;;;18.50;;
1957;SDS011;979;51.076;13.748;2022-11-10T08:38:23;18.53;;;17.53;;
1957;SDS011;979;51.076;13.748;2022-11-10T08:41:12;18.00;;;17.30;;
1957;SDS011;979;51.076;13.748;2022-11-10T08:43:59;19.37;;;18.40;;
1957;SDS011;979;51.076;13.748;2022-11-10T08:46:47;19.40;;;18.40;;
1957;SDS011;979;51.076;13.748;2022-11-10T08:49:34;18.70;;;17.80;;
1957;SDS011;979;51.076;13.748;2022-11-10T08:52:23;19.00;;;18.03;;
1957;SDS011;979;51.076;13.748;2022-11-10T08:55:17;19.13;;;18.10;;
1957;SDS011;979;51.076;13.748;2022-11-10T08:58:04;18.57;;;17.80;;
1957;SDS011;979;51.076;13.748;2022-11-10T09:00:52;18.73;;;17.90;;
1957;SDS011;979;51.076;13.748;2022-11-10T09:03:41;18.90;;;17.97;;
1957;SDS011;979;51.076;13.748;2022-11-10T09:06:28;19.23;;;18.20;;
1957;SDS011;979;51.076;13.748;2022-11-10T09:09:17;18.90;;;18.00;;
1957;SDS011;979;51.076;13.748;2022-11-10T09:12:05;17.90;;;17.20;;
1957;SDS011;979;51.076;13.748;2022-11-10T09:14:52;19.20;;;18.47;;
1957;SDS011;979;51.076;13.748;2022-11-10T09:17:39;19.17;;;18.07;;
1957;SDS011;979;51.076;13.748;2022-11-10T09:20:28;18.97;;;17.97;;
1957;SDS011;979;51.076;13.748;2022-11-10T09:23:17;18.40;;;17.47;;
1957;SDS011;979;51.076;13.748;2022-11-10T09:26:06;19.00;;;18.10;;
1957;SDS011;979;51.076;13.748;2022-11-10T09:28:55;19.30;;;18.40;;
1957;SDS011;979;51.076;13.748;2022-11-10T09:31:42;17.57;;;16.87;;
1957;SDS011;979;51.076;13.748;2022-11-10T09:34:40;19.10;;;17.80;;
1957;SDS011;979;51.076;13.748;2022-11-10T09:37:37;18.90;;;18.10;;
1957;SDS011;979;51.076;13.748;2022-11-10T09:40:45;18.90;;;17.97;;
1957;SDS011;979;51.076;13.748;2022-11-10T09:43:51;18.70;;;17.60;;
1957;SDS011;979;51.076;13.748;2022-11-10T09:46:46;19.10;;;18.00;;
1957;SDS011;979;51.076;13.748;2022-11-10T09:49:37;19.37;;;18.17;;
1957;SDS011;979;51.076;13.748;2022-11-10T09:52:28;18.30;;;17.40;;
1957;SDS011;979;51.076;13.748;2022-11-10T09:55:24;20.87;;;19.67;;
1957;SDS011;979;51.076;13.748;2022-11-10T09:58:16;19.30;;;18.03;;
1957;SDS011;979;51.076;13.748;2022-11-10T10:01:13;18.10;;;17.30;;
1957;SDS011;979;51.076;13.748;2022-11-10T10:04:12;18.70;;;17.90;;
1957;SDS011;979;51.076;13.748;2022-11-10T10:07:07;18.43;;;17.53;;
1957;SDS011;979;51.076;13.748;2022-11-10T10:09:59;18.40;;;17.40;;
1957;SDS011;979;51.076;13.748;2022-11-10T10:13:08;18.87;;;17.90;;
1957;SDS011;979;51.076;13.748;2022-11-10T10:16:16;18.23;;;17.13;;
1957;SDS011;979;51.076;13.748;2022-11-10T10:19:14;17.83;;;16.83;;
1957;SDS011;979;51.076;13.748;2022-11-10T10:22:19;18.90;;;18.00;;
1957;SDS011;979;51.076;13.748;2022-11-10T10:25:29;18.77;;;17.67;;
1957;SDS011;979;51.076;13.748;2022-11-10T10:28:19;18.70;;;17.87;;
1957;SDS011;979;51.076;13.748;2022-11-10T10:31:14;19.90;;;18.37;;
1957;SDS011;979;51.076;13.748;2022-11-10T10:34:11;18.70;;;17.90;;
1957;SDS011;979;51.076;13.748;2022-11-10T10:37:02;18.93;;;17.90;;
1957;SDS011;979;51.076;13.748;2022-11-10T10:39:52;18.67;;;17.37;;
1957;SDS011;979;51.076;13.748;2022-11-10T10:42:42;18.00;;;16.93;;
1957;SDS011;979;51.076;13.748;2022-11-10T10:45:29;17.37;;;16.77;;
1957;SDS011;979;51.076;13.748;2022-11-10T10:48:24;17.83;;;16.90;;
1957;SDS011;979;51.076;13.748;2022-11-10T10:51:26;18.60;;;17.40;;
1957;SDS011;979;51.076;13.748;2022-11-10T10:54:25;18.57;;;17.40;;
1957;SDS011;979;51.076;13.748;2022-11-10T10:57:19;17.23;;;16.43;;
1957;SDS011;979;51.076;13.748;2022-11-10T11:00:14;17.43;;;16.57;;
1957;SDS011;979;51.076;13.748;2022-11-10T11:03:09;19.43;;;18.43;;
1957;SDS011;979;51.076;13.748;2022-11-10T11:06:11;16.80;;;16.07;;
1957;SDS011;979;51.076;13.748;2022-11-10T11:09:15;17.77;;;16.93;;
1957;SDS011;979;51.076;13.748;2022-11-10T11:15:51;18.30;;;17.27;;
1957;SDS011;979;51.076;13.748;2022-11-10T11:18:44;17.67;;;16.87;;
1957;SDS011;979;51.076;13.748;2022-11-10T11:21:41;18.33;;;17.00;;
1957;SDS011;979;51.076;13.748;2022-11-10T11:25:16;18.47;;;17.50;;
1957;SDS011;979;51.076;13.748;2022-11-10T11:28:11;18.77;;;17.97;;
1957;SDS011;979;51.076;13.748;2022-11-10T11:31:12;18.23;;;17.23;;
1957;SDS011;979;51.076;13.748;2022-11-10T11:34:07;18.23;;;17.40;;
1957;SDS011;979;51.076;13.748;2022-11-10T11:37:04;19.20;;;18.33;;
1957;SDS011;979;51.076;13.748;2022-11-10T11:40:11;18.47;;;17.37;;
1957;SDS011;979;51.076;13.748;2022-11-10T11:46:51;18.50;;;17.70;;
1957;SDS011;979;51.076;13.748;2022-11-10T11:49:51;18.33;;;17.63;;
1957;SDS011;979;51.076;13.748;2022-11-10T12:07:57;18.60;;;17.80;;
1957;SDS011;979;51.076;13.748;2022-11-10T12:11:24;19.53;;;18.77;;
1957;SDS011;979;51.076;13.748;2022-11-10T12:14:52;18.70;;;18.00;;
1957;SDS011;979;51.076;13.748;2022-11-10T12:18:29;19.40;;;18.40;;
1957;SDS011;979;51.076;13.748;2022-11-10T12:37:14;18.57;;;17.60;;
1957;SDS011;979;51.076;13.748;2022-11-10T12:40:14;17.20;;;16.30;;
1957;SDS011;979;51.076;13.748;2022-11-10T12:43:06;18.87;;;18.03;;
1957;SDS011;979;51.076;13.748;2022-11-10T12:45:59;17.53;;;16.83;;
1957;SDS011;979;51.076;13.748;2022-11-10T12:52:43;18.30;;;17.60;;
1957;SDS011;979;51.076;13.748;2022-11-10T12:55:41;19.07;;;18.30;;
1957;SDS011;979;51.076;13.748;2022-11-10T12:58:33;17.97;;;17.27;;
1957;SDS011;979;51.076;13.748;2022-11-10T13:01:20;18.17;;;17.47;;
1957;SDS011;979;51.076;13.748;2022-11-10T13:04:07;19.10;;;17.90;;
1957;SDS011;979;51.076;13.748;2022-11-10T13:06:57;19.57;;;18.67;;
1957;SDS011;979;51.076;13.748;2022-11-10T13:10:13;18.50;;;17.77;;
1957;SDS011;979;51.076;13.748;2022-11-10T13:13:26;18.30;;;17.60;;
1957;SDS011;979;51.076;13.748;2022-11-10T13:19:49;17.67;;;16.87;;
1957;SDS011;979;51.076;13.748;2022-11-10T13:22:37;17.70;;;16.97;;
1957;SDS011;979;51.076;13.748;2022-11-10T13:32:32;16.67;;;16.10;;
1957;SDS011;979;51.076;13.748;2022-11-10T13:41:42;19.20;;;17.50;;
1957;SDS011;979;51.076;13.748;2022-11-10T13:44:41;17.30;;;16.50;;
1957;SDS011;979;51.076;13.748;2022-11-10T13:47:45;17.40;;;16.37;;
1957;SDS011;979;51.076;13.748;2022-11-10T13:50:47;18.03;;;17.03;;
1957;SDS011;979;51.076;13.748;2022-11-10T13:53:50;18.47;;;17.30;;
1957;SDS011;979;51.076;13.748;2022-11-10T14:01:27;18.03;;;17.20;;
1957;SDS011;979;51.076;13.748;2022-11-10T14:04:37;17.73;;;16.93;;
1957;SDS011;979;51.076;13.748;2022-11-10T14:07:32;17.37;;;16.50;;
1957;SDS011;979;51.076;13.748;2022-11-10T14:13:40;16.80;;;16.20;;
1957;SDS011;979;51.076;13.748;2022-11-10T14:16:34;17.40;;;16.60;;
1957;SDS011;979;51.076;13.748;2022-11-10T14:20:45;17.70;;;16.80;;
1957;SDS011;979;51.076;13.748;2022-11-10T14:23:43;18.90;;;17.80;;
1957;SDS011;979;51.076;13.748;2022-11-10T14:42:32;25.80;;;24.67;;
1957;SDS011;979;51.076;13.748;2022-11-10T14:56:14;17.60;;;16.50;;
1957;SDS011;979;51.076;13.748;2022-11-10T14:59:24;18.60;;;17.13;;
1957;SDS011;979;51.076;13.748;2022-11-10T15:02:51;17.93;;;17.13;;
1957;SDS011;979;51.076;13.748;2022-11-10T15:06:16;20.93;;;19.93;;
1957;SDS011;979;51.076;13.748;2022-11-10T15:09:11;18.90;;;17.90;;
1957;SDS011;979;51.076;13.748;2022-11-10T15:24:17;19.27;;;18.37;;
1957;SDS011;979;51.076;13.748;2022-11-10T15:27:21;19.80;;;18.83;;
1957;SDS011;979;51.076;13.748;2022-11-10T15:30:22;18.70;;;17.70;;
1957;SDS011;979;51.076;13.748;2022-11-10T15:33:24;18.70;;;17.40;;
1957;SDS011;979;51.076;13.748;2022-11-10T15:36:15;19.17;;;17.83;;
1957;SDS011;979;51.076;13.748;2022-11-10T15:39:16;18.40;;;17.67;;
1957;SDS011;979;51.076;13.748;2022-11-10T15:42:12;19.50;;;18.30;;
1957;SDS011;979;51.076;13.748;2022-11-10T15:45:10;18.23;;;17.43;;
1957;SDS011;979;51.076;13.748;2022-11-10T15:47:57;17.77;;;16.50;;
1957;SDS011;979;51.076;13.748;2022-11-10T15:50:52;18.93;;;17.50;;
1957;SDS011;979;51.076;13.748;2022-11-10T15:53:48;18.90;;;17.70;;
1957;SDS011;979;51.076;13.748;2022-11-10T15:56:41;18.77;;;17.70;;
1957;SDS011;979;51.076;13.748;2022-11-10T15:59:28;18.23;;;17.43;;
1957;SDS011;979;51.076;13.748;2022-11-10T16:02:17;18.27;;;17.47;;
1957;SDS011;979;51.076;13.748;2022-11-10T16:05:10;19.83;;;18.30;;
1957;SDS011;979;51.076;13.748;2022-11-10T16:08:01;18.00;;;17.10;;
1957;SDS011;979;51.076;13.748;2022-11-10T16:10:49;19.77;;;18.00;;
1957;SDS011;979;51.076;13.748;2022-11-10T16:13:41;17.37;;;16.40;;
1957;SDS011;979;51.076;13.748;2022-11-10T16:16:30;17.83;;;16.93;;
1957;SDS011;979;51.076;13.748;2022-11-10T16:19:17;17.63;;;16.60;;
1957;SDS011;979;51.076;13.748;2022-11-10T16:22:05;17.43;;;16.83;;
1957;SDS011;979;51.076;13.748;2022-11-10T16:24:55;17.77;;;16.90;;
1957;SDS011;979;51.076;13.748;2022-11-10T16:27:42;18.13;;;16.97;;
1957;SDS011;979;51.076;13.748;2022-11-10T16:30:31;17.90;;;17.10;;
1957;SDS011;979;51.076;13.748;2022-11-10T16:33:19;18.50;;;17.20;;
1957;SDS011;979;51.076;13.748;2022-11-10T16:36:22;19.17;;;18.17;;
1957;SDS011;979;51.076;13.748;2022-11-10T16:39:13;17.10;;;16.37;;
1957;SDS011;979;51.076;13.748;2022-11-10T16:42:02;18.23;;;17.40;;
1957;SDS011;979;51.076;13.748;2022-11-10T16:44:49;17.40;;;16.80;;
1957;SDS011;979;51.076;13.748;2022-11-10T16:47:38;18.17;;;16.90;;
1957;SDS011;979;51.076;13.748;2022-11-10T16:50:30;18.50;;;17.50;;
1957;SDS011;979;51.076;13.748;2022-11-10T16:53:21;20.90;;;19.70;;
1957;SDS011;979;51.076;13.748;2022-11-10T16:56:14;18.00;;;16.70;;
1957;SDS011;979;51.076;13.748;2022-11-10T16:59:04;17.90;;;16.70;;
1957;SDS011;979;51.076;13.748;2022-11-10T17:01:53;17.73;;;16.80;;
1957;SDS011;979;51.076;13.748;2022-11-10T17:04:50;18.93;;;18.00;;
1957;SDS011;979;51.076;13.748;2022-11-10T17:07:41;18.40;;;17.60;;
1957;SDS011;979;51.076;13.748;2022-11-10T17:10:49;18.93;;;17.83;;
1957;SDS011;979;51.076;13.748;2022-11-10T17:13:45;18.70;;;17.50;;
1957;SDS011;979;51.076;13.748;2022-11-10T17:16:33;18.43;;;17.43;;
1957;SDS011;979;51.076;13.748;2022-11-10T17:19:30;19.47;;;18.30;;
1957;SDS011;979;51.076;13.748;2022-11-10T17:22:19;19.77;;;18.53;;
1957;SDS011;979;51.076;13.748;2022-11-10T17:25:14;20.53;;;19.43;;
1957;SDS011;979;51.076;13.748;2022-11-10T17:28:07;20.30;;;19.30;;
1957;SDS011;979;51.076;13.748;2022-11-10T17:30:58;19.33;;;18.23;;
1957;SDS011;979;51.076;13.748;2022-11-10T17:33:45;20.10;;;18.87;;
1957;SDS011;979;51.076;13.748;2022-11-10T17:36:35;19.03;;;18.03;;
1957;SDS011;979;51.076;13.748;2022-11-10T17:39:25;20.60;;;19.00;;
1957;SDS011;979;51.076;13.748;2022-11-10T17:42:13;20.13;;;19.23;;
1957;SDS011;979;51.076;13.748;2022-11-10T17:45:34;24.07;;;22.47;;
1957;SDS011;979;51.076;13.748;2022-11-10T17:48:20;22.60;;;21.20;;
1957;SDS011;979;51.076;13.748;2022-11-10T18:15:59;21.00;;;19.80;;
1957;SDS011;979;51.076;13.748;2022-11-10T18:22:37;22.50;;;20.53;;
1957;SDS011;979;51.076;13.748;2022-11-10T18:25:51;21.73;;;20.30;;
1957;SDS011;979;51.076;13.748;2022-11-10T18:33:13;21.90;;;20.37;;
1957;SDS011;979;51.076;13.748;2022-11-10T18:36:48;20.50;;;19.20;;
1957;SDS011;979;51.076;13.748;2022-11-10T18:44:21;20.87;;;19.73;;
1957;SDS011;979;51.076;13.748;2022-11-10T18:51:50;21.57;;;19.83;;
1957;SDS011;979;51.076;13.748;2022-11-10T18:55:36;20.70;;;19.30;;
1957;SDS011;979;51.076;13.748;2022-11-10T18:59:04;20.90;;;19.60;;
1957;SDS011;979;51.076;13.748;2022-11-10T19:06:18;23.87;;;21.87;;
1957;SDS011;979;51.076;13.748;2022-11-10T19:09:59;25.93;;;23.47;;
1957;SDS011;979;51.076;13.748;2022-11-10T19:13:21;25.27;;;23.27;;
1957;SDS011;979;51.076;13.748;2022-11-10T19:16:26;24.10;;;22.30;;
1957;SDS011;979;51.076;13.748;2022-11-10T19:19:39;26.20;;;24.50;;
1957;SDS011;979;51.076;13.748;2022-11-10T19:26:44;22.00;;;20.53;;
1957;SDS011;979;51.076;13.748;2022-11-10T19:29:59;24.37;;;22.57;;
1957;SDS011;979;51.076;13.748;2022-11-10T19:33:33;21.27;;;20.07;;
1957;SDS011;979;51.076;13.748;2022-11-10T19:36:38;22.00;;;20.60;;
1957;SDS011;979;51.076;13.748;2022-11-10T19:40:03;22.60;;;21.10;;
1957;SDS011;979;51.076;13.748;2022-11-10T19:46:56;24.23;;;22.67;;
1957;SDS011;979;51.076;13.748;2022-11-10T19:54:04;23.00;;;21.50;;
1957;SDS011;979;51.076;13.748;2022-11-10T19:57:03;22.33;;;20.63;;
1957;SDS011;979;51.076;13.748;2022-11-10T20:00:18;21.20;;;19.90;;
1957;SDS011;979;51.076;13.748;2022-11-10T20:03:20;22.33;;;21.00;;
1957;SDS011;979;51.076;13.748;2022-11-10T20:06:08;22.97;;;21.40;;
1957;SDS011;979;51.076;13.748;2022-11-10T20:08:56;21.03;;;19.20;;
1957;SDS011;979;51.076;13.748;2022-11-10T20:11:44;22.50;;;20.90;;
1957;SDS011;979;51.076;13.748;2022-11-10T20:14:31;21.93;;;20.20;;
1957;SDS011;979;51.076;13.748;2022-11-10T20:17:18;22.50;;;20.80;;
1957;SDS011;979;51.076;13.748;2022-11-10T20:20:07;21.43;;;20.03;;
1957;SDS011;979;51.076;13.748;2022-11-10T20:22:58;21.87;;;20.43;;
1957;SDS011;979;51.076;13.748;2022-11-10T20:25:46;22.40;;;21.20;;
1957;SDS011;979;51.076;13.748;2022-11-10T20:28:34;23.07;;;21.47;;
1957;SDS011;979;51.076;13.748;2022-11-10T20:31:26;23.13;;;21.33;;
1957;SDS011;979;51.076;13.748;2022-11-10T20:34:55;24.57;;;22.73;;
1957;SDS011;979;51.076;13.748;2022-11-10T20:38:29;24.10;;;22.00;;
1957;SDS011;979;51.076;13.748;2022-11-10T20:41:51;24.10;;;22.30;;
1957;SDS011;979;51.076;13.748;2022-11-10T20:45:15;24.63;;;22.83;;
1957;SDS011;979;51.076;13.748;2022-11-10T20:48:18;26.53;;;23.80;;
1957;SDS011;979;51.076;13.748;2022-11-10T20:51:25;24.20;;;22.40;;
1957;SDS011;979;51.076;13.748;2022-11-10T20:54:42;24.73;;;23.00;;
1957;SDS011;979;51.076;13.748;2022-11-10T20:57:45;25.47;;;23.37;;
1957;SDS011;979;51.076;13.748;2022-11-10T21:00:59;24.63;;;22.70;;
1957;SDS011;979;51.076;13.748;2022-11-10T21:03:56;23.97;;;22.37;;
1957;SDS011;979;51.076;13.748;2022-11-10T21:07:16;22.57;;;20.90;;
1957;SDS011;979;51.076;13.748;2022-11-10T21:11:03;20.77;;;19.47;;
1957;SDS011;979;51.076;13.748;2022-11-10T21:14:29;20.00;;;18.83;;
1957;SDS011;979;51.076;13.748;2022-11-10T21:40:37;21.30;;;20.00;;
1957;SDS011;979;51.076;13.748;2022-11-10T21:43:47;24.33;;;22.10;;
1957;SDS011;979;51.076;13.748;2022-11-10T21:47:01;20.73;;;19.20;;
1957;SDS011;979;51.076;13.748;2022-11-10T21:50:26;21.73;;;20.07;;
1957;SDS011;979;51.076;13.748;2022-11-10T21:53:37;22.77;;;21.03;;
1957;SDS011;979;51.076;13.748;2022-11-10T21:57:09;20.80;;;19.60;;
1957;SDS011;979;51.076;13.748;2022-11-10T22:00:20;21.40;;;20.07;;
1957;SDS011;979;51.076;13.748;2022-11-10T22:03:39;21.70;;;19.97;;
1957;SDS011;979;51.076;13.748;2022-11-10T22:06:51;21.93;;;20.53;;
1957;SDS011;979;51.076;13.748;2022-11-10T22:10:09;22.10;;;20.70;;
1957;SDS011;979;51.076;13.748;2022-11-10T22:13:39;21.27;;;20.03;;
1957;SDS011;979;51.076;13.748;2022-11-10T22:16:44;20.70;;;19.40;;
1957;SDS011;979;51.076;13.748;2022-11-10T22:19:49;21.60;;;20.40;;
1957;SDS011;979;51.076;13.748;2022-11-10T22:22:36;22.30;;;20.83;;
1957;SDS011;979;51.076;13.748;2022-11-10T22:25:23;20.70;;;19.50;;
1957;SDS011;979;51.076;13.748;2022-11-10T22:28:11;22.40;;;20.53;;
1957;SDS011;979;51.076;13.748;2022-11-10T22:31:05;22.57;;;20.97;;
1957;SDS011;979;51.076;13.748;2022-11-10T22:34:00;21.93;;;20.33;;
1957;SDS011;979;51.076;13.748;2022-11-10T22:37:10;23.03;;;21.10;;
1957;SDS011;979;51.076;13.748;2022-11-10T22:40:20;23.57;;;21.70;;
1957;SDS011;979;51.076;13.748;2022-11-10T22:43:43;22.70;;;21.40;;